Time;durP1;ratioP1;P1;durP2;ratioP2;P2;SDS_P1;SDS_P2;PMS_P1;PMS_P2;Temp;Humidity;BMP_temperature;BMP_pressure;BME280_temperature;BME280_humidity;BME280_pressure;Samples;Min_cycle;Max_cycle;Signal;HPM_P1;HPM_P2
2022/09/05 00:00:19;;;;;;;2.92;2.35;;;18.90;65.60;;;;;;895499;157;27439;-77
2022/09/05 00:03:00;;;;;;;2.62;2.42;;;18.90;65.80;;;;;;894959;157;27357;-77
2022/09/05 00:05:45;;;;;;;3.35;2.27;;;18.80;66.10;;;;;;894449;157;27529;-77
2022/09/05 00:08:11;;;;;;;2.25;2.12;;;18.80;66.10;;;;;;894247;157;27444;-76
2022/09/05 00:10:44;;;;;;;2.90;2.62;;;18.80;66.30;;;;;;894479;157;27420;-76
2022/09/05 00:13:10;;;;;;;3.27;2.80;;;18.70;66.60;;;;;;895819;157;27433;-77
2022/09/05 00:15:55;;;;;;;3.15;2.85;;;18.70;66.80;;;;;;894056;157;27444;-77
2022/09/05 00:18:36;;;;;;;2.67;2.47;;;18.70;67.00;;;;;;895330;157;27461;-77
2022/09/05 00:21:24;;;;;;;2.47;2.27;;;18.70;67.10;;;;;;894647;157;27490;-77
2022/09/05 00:23:53;;;;;;;2.47;2.37;;;18.60;67.10;;;;;;896533;157;27428;-78
2022/09/05 00:26:25;;;;;;;2.08;1.98;;;18.60;67.30;;;;;;896508;157;27433;-78
2022/09/05 00:28:52;;;;;;;2.70;2.50;;;18.60;67.80;;;;;;896597;157;27542;-78
2022/09/05 00:31:43;;;;;;;2.95;2.75;;;18.60;67.80;;;;;;894083;157;28576;-78
2022/09/05 00:34:31;;;;;;;3.55;2.50;;;18.60;68.10;;;;;;894529;157;27403;-77
2022/09/05 00:36:57;;;;;;;2.40;2.30;;;18.50;68.00;;;;;;895228;157;27419;-78
2022/09/05 00:39:35;;;;;;;2.77;2.58;;;18.50;68.10;;;;;;895652;157;27405;-78
2022/09/05 00:42:08;;;;;;;2.70;2.50;;;18.50;68.50;;;;;;895314;157;27507;-78
2022/09/05 00:44:34;;;;;;;2.83;2.62;;;18.50;68.70;;;;;;893564;157;27458;-78
2022/09/05 00:47:07;;;;;;;3.12;2.83;;;18.40;69.00;;;;;;895295;157;27432;-76
2022/09/05 00:49:39;;;;;;;3.30;3.00;;;18.40;70.00;;;;;;895669;157;27905;-76
2022/09/05 00:52:21;;;;;;;3.20;2.98;;;18.40;69.50;;;;;;895652;157;27444;-76
2022/09/05 00:55:06;;;;;;;2.77;2.58;;;18.40;69.50;;;;;;895510;157;27388;-76
2022/09/05 00:57:41;;;;;;;2.90;2.60;;;18.40;69.50;;;;;;895156;157;28893;-76
2022/09/05 01:00:14;;;;;;;2.87;2.33;;;18.40;69.50;;;;;;895166;157;27419;-76
2022/09/05 01:03:15;;;;;;;2.85;2.65;;;18.40;69.60;;;;;;896024;157;27413;-76
2022/09/05 01:05:49;;;;;;;2.58;2.37;;;18.30;69.60;;;;;;893771;157;27522;-77
2022/09/05 01:08:34;;;;;;;3.35;3.02;;;18.30;69.60;;;;;;895262;157;27866;-77
2022/09/05 01:11:19;;;;;;;2.42;2.22;;;18.30;69.70;;;;;;895560;157;27554;-78
2022/09/05 01:14:07;;;;;;;2.95;2.72;;;18.20;69.80;;;;;;894674;157;27869;-78
2022/09/05 01:16:52;;;;;;;2.40;2.30;;;18.20;69.90;;;;;;894704;157;27845;-77
2022/09/05 01:19:18;;;;;;;2.80;2.60;;;18.10;70.00;;;;;;894924;157;27617;-77
2022/09/05 01:21:57;;;;;;;2.87;2.67;;;18.10;70.30;;;;;;894642;157;27530;-77
2022/09/05 01:24:32;;;;;;;2.72;2.52;;;18.10;70.60;;;;;;895101;157;27441;-77
2022/09/05 01:26:59;;;;;;;2.92;2.72;;;18.10;70.70;;;;;;895310;157;27461;-78
2022/09/05 01:29:46;;;;;;;2.70;2.50;;;18.00;71.00;;;;;;895471;157;27489;-77
2022/09/05 01:32:50;;;;;;;2.62;2.42;;;18.00;71.20;;;;;;894689;157;27511;-77
2022/09/05 01:35:35;;;;;;;2.98;2.65;;;18.00;71.20;;;;;;893913;157;27424;-77
2022/09/05 01:38:05;;;;;;;2.90;2.70;;;18.00;71.30;;;;;;895022;157;27411;-77
2022/09/05 01:40:49;;;;;;;2.70;2.50;;;18.00;71.60;;;;;;894561;157;27467;-77
2022/09/05 01:43:24;;;;;;;3.15;2.33;;;17.90;71.90;;;;;;894015;157;27447;-77
2022/09/05 01:45:51;;;;;;;2.83;2.60;;;17.90;72.00;;;;;;894932;157;28038;-77
2022/09/05 01:48:21;;;;;;;2.72;2.52;;;17.90;72.10;;;;;;894227;157;27459;-77
2022/09/05 01:50:53;;;;;;;2.92;2.72;;;17.90;72.30;;;;;;890379;157;27417;-78
2022/09/05 01:53:38;;;;;;;2.62;2.42;;;17.90;72.50;;;;;;892973;157;27502;-78
2022/09/05 01:56:32;;;;;;;2.58;2.37;;;17.90;72.80;;;;;;894175;157;27397;-78
2022/09/05 01:59:11;;;;;;;2.95;2.65;;;17.90;72.80;;;;;;894235;157;27435;-77
2022/09/05 02:01:49;;;;;;;3.50;2.95;;;17.80;72.80;;;;;;893405;157;27458;-77
2022/09/05 02:04:42;;;;;;;2.75;2.47;;;17.80;73.10;;;;;;894202;157;27530;-75
2022/09/05 02:07:37;;;;;;;2.62;2.45;;;17.80;73.50;;;;;;895287;157;27424;-76
2022/09/05 02:10:33;;;;;;;2.25;2.15;;;17.70;73.50;;;;;;894104;157;27420;-74
2022/09/05 02:13:12;;;;;;;2.62;2.42;;;17.70;73.70;;;;;;894312;157;27416;-75
2022/09/05 02:15:45;;;;;;;2.50;2.30;;;17.70;73.90;;;;;;892985;157;27390;-76
2022/09/05 02:18:11;;;;;;;2.40;2.20;;;17.60;74.30;;;;;;893130;157;27554;-76
2022/09/05 02:20:41;;;;;;;2.65;2.45;;;17.70;74.80;;;;;;893933;157;27447;-73
2022/09/05 02:23:16;;;;;;;2.67;2.47;;;17.60;74.20;;;;;;894646;157;27439;-74
2022/09/05 02:25:46;;;;;;;2.25;2.15;;;17.60;75.10;;;;;;894331;157;27521;-75
2022/09/05 02:28:46;;;;;;;2.60;2.40;;;17.60;75.00;;;;;;893446;157;27471;-75
2022/09/05 02:31:18;;;;;;;2.17;2.08;;;17.60;75.30;;;;;;894254;157;27420;-75
2022/09/05 02:33:54;;;;;;;2.45;2.17;;;17.60;75.10;;;;;;891456;157;27562;-75
2022/09/05 02:36:39;;;;;;;2.90;2.70;;;17.60;75.40;;;;;;895016;157;27426;-76
2022/09/05 02:39:06;;;;;;;3.50;3.10;;;17.50;75.50;;;;;;894181;157;27432;-74
2022/09/05 02:41:44;;;;;;;3.00;2.80;;;17.50;75.40;;;;;;893544;157;27439;-75
2022/09/05 02:44:19;;;;;;;3.80;3.37;;;17.50;75.60;;;;;;854528;164;27542;-76
2022/09/05 02:47:04;;;;;;;3.35;3.05;;;17.40;75.40;;;;;;894635;157;27522;-75
2022/09/05 02:49:31;;;;;;;3.05;2.62;;;17.40;75.50;;;;;;897798;156;27482;-76
2022/09/05 02:51:57;;;;;;;3.00;2.80;;;17.40;75.60;;;;;;897225;156;27493;-76
2022/09/05 02:54:30;;;;;;;2.87;2.67;;;17.30;75.80;;;;;;899221;156;27515;-76
2022/09/05 02:57:24;;;;;;;3.02;2.83;;;17.30;76.00;;;;;;899341;156;27493;-76
2022/09/05 03:00:02;;;;;;;3.65;3.35;;;17.20;76.20;;;;;;899673;156;27458;-76
2022/09/05 03:02:41;;;;;;;3.07;2.77;;;17.10;76.20;;;;;;900358;156;28069;-75
2022/09/05 03:05:07;;;;;;;3.00;2.80;;;17.10;76.60;;;;;;900923;156;27418;-76
2022/09/05 03:07:55;;;;;;;3.20;2.90;;;17.00;76.90;;;;;;900734;156;27399;-75
2022/09/05 03:10:34;;;;;;;3.85;2.62;;;17.00;77.40;;;;;;882373;156;27539;-75
2022/09/05 03:13:21;;;;;;;2.77;2.58;;;17.00;77.60;;;;;;899957;156;27452;-76
2022/09/05 03:16:06;;;;;;;3.07;2.87;;;16.90;78.00;;;;;;899740;156;27454;-75
2022/09/05 03:18:57;;;;;;;3.00;2.80;;;16.80;78.40;;;;;;899809;156;27532;-75
2022/09/05 03:21:51;;;;;;;2.80;2.60;;;16.80;78.70;;;;;;899601;156;27466;-76
2022/09/05 03:24:39;;;;;;;3.00;2.80;;;16.80;78.90;;;;;;899318;156;27445;-74
2022/09/05 03:27:27;;;;;;;3.20;2.90;;;16.70;79.10;;;;;;900036;156;27432;-75
2022/09/05 03:30:10;;;;;;;3.10;2.80;;;16.70;79.40;;;;;;899886;156;27478;-75
2022/09/05 03:32:47;;;;;;;3.20;3.00;;;16.60;79.60;;;;;;889100;156;27524;-74
2022/09/05 03:35:29;;;;;;;3.10;2.87;;;16.60;79.80;;;;;;899366;156;28017;-73
2022/09/05 03:38:32;;;;;;;3.00;2.80;;;16.60;81.00;;;;;;865264;164;27583;-74
2022/09/05 03:41:17;;;;;;;2.93;2.63;;;16.60;80.40;;;;;;899663;156;27546;-75
2022/09/05 03:44:21;;;;;;;3.20;3.00;;;16.60;80.50;;;;;;900520;156;27992;-75
2022/09/05 03:46:50;;;;;;;2.90;2.70;;;16.60;80.90;;;;;;901454;156;27415;-75
2022/09/05 03:49:44;;;;;;;3.10;2.90;;;16.60;81.00;;;;;;896376;156;27487;-74
2022/09/05 03:52:14;;;;;;;3.37;2.58;;;16.60;81.70;;;;;;894470;157;27553;-74
2022/09/05 03:54:46;;;;;;;3.17;2.92;;;16.60;82.00;;;;;;893810;157;27490;-74
2022/09/05 03:57:13;;;;;;;3.40;2.93;;;16.60;82.50;;;;;;892736;157;27485;-74
2022/09/05 03:59:39;;;;;;;3.20;2.90;;;16.60;83.00;;;;;;893384;157;27521;-74
2022/09/05 04:02:06;;;;;;;3.10;2.80;;;16.70;83.50;;;;;;894146;157;27459;-76
2022/09/05 04:04:41;;;;;;;3.15;2.85;;;16.70;83.80;;;;;;894639;157;27536;-76
2022/09/05 04:07:26;;;;;;;3.45;3.15;;;16.80;84.10;;;;;;893303;157;27494;-75
2022/09/05 04:09:53;;;;;;;3.80;3.50;;;16.80;84.20;;;;;;894148;156;27502;-78
2022/09/05 04:12:20;;;;;;;5.30;4.80;;;16.90;84.30;;;;;;893825;157;27399;-76
2022/09/05 04:14:52;;;;;;;4.75;4.40;;;16.90;84.70;;;;;;894433;157;27490;-76
2022/09/05 04:17:39;;;;;;;3.60;3.35;;;17.00;84.80;;;;;;894073;157;27436;-75
2022/09/05 04:20:28;;;;;;;6.37;3.90;;;17.00;84.90;;;;;;894669;157;27440;-75
2022/09/05 04:23:15;;;;;;;4.12;3.67;;;17.10;84.80;;;;;;894349;157;28145;-75
2022/09/05 04:26:19;;;;;;;4.03;3.37;;;17.10;84.90;;;;;;894645;157;27993;-75
2022/09/05 04:28:51;;;;;;;3.40;3.10;;;17.20;85.20;;;;;;894103;157;27829;-74
2022/09/05 04:31:23;;;;;;;3.85;3.20;;;17.20;85.20;;;;;;887975;157;27437;-75
2022/09/05 04:33:59;;;;;;;2.95;2.75;;;17.20;85.70;;;;;;894725;157;27448;-76
2022/09/05 04:36:28;;;;;;;2.80;2.60;;;17.30;86.10;;;;;;893650;157;27546;-75
2022/09/05 04:39:18;;;;;;;2.80;2.65;;;17.30;86.50;;;;;;895165;157;27859;-75
2022/09/05 04:42:00;;;;;;;2.77;2.58;;;17.30;87.00;;;;;;894322;157;28481;-74
2022/09/05 04:44:27;;;;;;;2.95;2.65;;;17.40;87.00;;;;;;894887;157;27419;-77
2022/09/05 04:46:56;;;;;;;3.25;2.62;;;17.40;87.20;;;;;;894790;157;27452;-76
2022/09/05 04:49:22;;;;;;;3.02;2.83;;;17.40;87.60;;;;;;895970;156;27477;-77
2022/09/05 04:52:13;;;;;;;3.43;3.13;;;17.40;87.70;;;;;;898989;156;27428;-76
2022/09/05 04:54:51;;;;;;;3.33;2.98;;;17.40;88.20;;;;;;898339;156;27355;-76
2022/09/05 04:57:27;;;;;;;4.62;3.60;;;17.50;87.90;;;;;;899209;156;27954;-76
2022/09/05 05:00:00;;;;;;;3.72;2.90;;;17.50;87.60;;;;;;897426;156;27442;-74
2022/09/05 05:02:41;;;;;;;3.45;3.15;;;17.50;88.20;;;;;;900409;156;27500;-76
2022/09/05 05:05:08;;;;;;;3.43;3.17;;;17.60;89.30;;;;;;900138;156;27411;-76
2022/09/05 05:07:40;;;;;;;3.40;3.20;;;17.60;88.80;;;;;;900291;156;27462;-77
2022/09/05 05:10:07;;;;;;;3.15;2.85;;;17.70;90.00;;;;;;887456;156;27423;-77
2022/09/05 05:12:58;;;;;;;3.70;3.37;;;17.80;90.70;;;;;;900661;156;27447;-77
2022/09/05 05:15:24;;;;;;;3.12;2.92;;;18.00;91.10;;;;;;901515;156;27962;-77
2022/09/05 05:17:52;;;;;;;3.47;3.17;;;18.20;90.80;;;;;;901308;156;27345;-77
2022/09/05 05:20:36;;;;;;;3.67;3.35;;;18.40;90.60;;;;;;899393;156;27415;-77
2022/09/05 05:23:08;;;;;;;3.65;3.35;;;18.60;89.20;;;;;;893899;156;27500;-77
2022/09/05 05:25:50;;;;;;;3.12;2.87;;;18.80;87.50;;;;;;900307;156;27532;-79
2022/09/05 05:28:26;;;;;;;4.15;3.35;;;18.90;87.00;;;;;;899812;156;27462;-77
2022/09/05 05:30:52;;;;;;;3.30;3.05;;;19.00;86.40;;;;;;900144;156;27555;-78
2022/09/05 05:33:25;;;;;;;3.50;3.30;;;19.10;85.50;;;;;;899941;156;27533;-76
2022/09/05 05:35:52;;;;;;;3.75;3.42;;;19.20;84.90;;;;;;899834;156;27764;-76
2022/09/05 05:38:42;;;;;;;3.52;3.20;;;19.30;84.70;;;;;;899322;156;27970;-76
2022/09/05 05:41:18;;;;;;;3.55;2.80;;;19.40;84.70;;;;;;899503;156;27512;-76
2022/09/05 05:43:44;;;;;;;3.10;2.90;;;19.40;84.30;;;;;;900029;156;27551;-77
2022/09/05 05:46:14;;;;;;;3.00;2.80;;;19.50;85.50;;;;;;899734;156;28653;-77
2022/09/05 05:48:40;;;;;;;3.02;2.83;;;19.70;87.70;;;;;;897746;156;27509;-77
2022/09/05 05:51:13;;;;;;;3.10;2.90;;;20.00;89.60;;;;;;896828;156;27493;-78
2022/09/05 05:53:51;;;;;;;2.65;2.45;;;20.30;90.50;;;;;;895927;157;27450;-79
2022/09/05 05:56:20;;;;;;;2.70;2.50;;;20.80;90.70;;;;;;895512;157;27430;-75
2022/09/05 05:59:02;;;;;;;2.30;2.20;;;21.30;89.50;;;;;;893361;157;27498;-75
2022/09/05 06:02:06;;;;;;;2.58;2.40;;;21.90;88.20;;;;;;895593;157;28317;-76
2022/09/05 06:05:00;;;;;;;2.92;2.37;;;22.40;86.10;;;;;;895580;156;27503;-75
2022/09/05 06:07:45;;;;;;;1.85;1.75;;;23.00;83.80;;;;;;896000;156;27436;-76
2022/09/05 06:10:26;;;;;;;2.45;2.25;;;23.50;80.20;;;;;;894928;157;27409;-75
2022/09/05 06:13:30;;;;;;;2.80;2.58;;;24.00;77.90;;;;;;895450;157;27776;-75
2022/09/05 06:16:18;;;;;;;2.45;2.25;;;24.40;76.30;;;;;;895338;157;27386;-75
2022/09/05 06:19:15;;;;;;;2.47;2.27;;;24.90;75.70;;;;;;895611;157;27506;-75
2022/09/05 06:21:45;;;;;;;2.42;2.25;;;25.40;75.20;;;;;;894473;157;27901;-75
2022/09/05 06:24:14;;;;;;;2.10;2.00;;;26.00;74.80;;;;;;894448;157;27546;-74
2022/09/05 06:26:59;;;;;;;3.05;2.25;;;26.70;74.00;;;;;;895994;157;27456;-75
2022/09/05 06:29:56;;;;;;;2.27;2.08;;;27.30;72.40;;;;;;894303;157;27414;-76
2022/09/05 06:32:53;;;;;;;2.08;1.90;;;28.10;70.30;;;;;;895261;157;27449;-75
2022/09/05 06:35:31;;;;;;;2.85;1.98;;;28.90;68.30;;;;;;895677;157;27369;-74
2022/09/05 06:37:58;;;;;;;2.80;1.82;;;29.50;65.30;;;;;;894363;157;27509;-75
2022/09/05 06:40:24;;;;;;;2.35;1.85;;;29.80;61.80;;;;;;895073;157;27496;-74
2022/09/05 06:43:02;;;;;;;2.22;2.02;;;30.00;59.60;;;;;;896776;157;27421;-74
2022/09/05 06:45:51;;;;;;;2.67;2.10;;;29.90;58.40;;;;;;895212;157;27920;-74
2022/09/05 06:48:20;;;;;;;2.37;2.15;;;29.70;57.50;;;;;;894673;157;27509;-75
2022/09/05 06:51:11;;;;;;;3.37;2.30;;;29.40;57.30;;;;;;895578;157;27456;-75
2022/09/05 06:53:58;;;;;;;2.30;2.00;;;29.10;57.80;;;;;;892541;157;27421;-76
2022/09/05 06:56:56;;;;;;;2.83;1.87;;;29.10;58.80;;;;;;891647;157;27447;-74
2022/09/05 06:59:59;;;;;;;2.35;1.70;;;29.20;59.50;;;;;;894032;157;27550;-74
2022/09/05 07:02:35;;;;;;;2.40;2.12;;;29.50;60.10;;;;;;894305;157;27440;-74
2022/09/05 07:05:07;;;;;;;1.92;1.77;;;30.10;60.30;;;;;;886317;157;27526;-75
2022/09/05 07:07:37;;;;;;;1.85;1.60;;;30.80;60.20;;;;;;893823;157;27414;-75
2022/09/05 07:10:27;;;;;;;2.45;1.92;;;31.50;59.60;;;;;;893354;157;27501;-76
2022/09/05 07:12:54;;;;;;;1.65;1.55;;;32.30;58.90;;;;;;866714;161;27472;-75
2022/09/05 07:15:39;;;;;;;2.02;1.80;;;33.20;57.70;;;;;;865156;161;27605;-76
2022/09/05 07:18:33;;;;;;;2.10;1.57;;;34.00;56.20;;;;;;879514;157;27427;-79
2022/09/05 07:21:02;;;;;;;1.57;1.47;;;34.70;55.10;;;;;;893846;157;26339;-75
2022/09/05 07:23:43;;;;;;;1.95;1.70;;;35.40;54.10;;;;;;893352;157;26442;-75
2022/09/05 07:26:10;;;;;;;1.37;1.30;;;36.10;53.10;;;;;;894319;157;26319;-75
2022/09/05 07:28:36;;;;;;;2.40;1.60;;;36.80;52.30;;;;;;895225;157;26359;-75
2022/09/05 07:31:03;;;;;;;1.75;1.65;;;37.40;51.40;;;;;;893626;157;26454;-75
2022/09/05 07:33:30;;;;;;;1.72;1.47;;;37.90;50.30;;;;;;893993;157;26332;-75
2022/09/05 07:35:56;;;;;;;1.47;1.37;;;38.50;49.40;;;;;;894376;157;26276;-75
2022/09/05 07:38:25;;;;;;;3.98;1.40;;;39.00;48.40;;;;;;893117;157;26280;-75
2022/09/05 07:40:52;;;;;;;1.40;1.30;;;39.60;47.90;;;;;;893862;157;26378;-75
2022/09/05 07:43:34;;;;;;;3.33;3.02;;;40.20;47.10;;;;;;893536;157;26765;-75
2022/09/05 07:46:00;;;;;;;3.42;1.75;;;40.70;46.20;;;;;;893761;157;26389;-76
2022/09/05 07:48:27;;;;;;;1.75;1.20;;;41.40;45.30;;;;;;894821;157;26273;-75
2022/09/05 07:50:53;;;;;;;1.40;1.30;;;41.90;44.30;;;;;;894925;156;26404;-76
2022/09/05 07:53:20;;;;;;;1.65;1.50;;;42.40;43.20;;;;;;894134;157;26458;-76
2022/09/05 07:55:46;;;;;;;4.45;1.70;;;42.90;42.50;;;;;;894251;157;26436;-75
2022/09/05 07:58:13;;;;;;;1.40;1.30;;;43.30;41.50;;;;;;894098;157;26351;-75
2022/09/05 08:00:40;;;;;;;1.77;1.40;;;43.70;41.00;;;;;;893820;157;26319;-76
2022/09/05 08:03:12;;;;;;;1.20;1.10;;;44.10;40.30;;;;;;894184;157;26444;-76
2022/09/05 08:05:42;;;;;;;1.75;1.20;;;44.40;39.20;;;;;;894484;157;26335;-76
2022/09/05 08:08:11;;;;;;;1.40;1.30;;;44.70;38.60;;;;;;894429;157;26864;-76
2022/09/05 08:10:43;;;;;;;2.75;1.37;;;45.00;38.10;;;;;;894292;157;26319;-75
2022/09/05 08:13:12;;;;;;;1.40;1.30;;;45.20;37.80;;;;;;893883;157;26295;-76
2022/09/05 08:15:39;;;;;;;1.67;1.30;;;45.40;37.10;;;;;;894220;157;26299;-76
2022/09/05 08:18:08;;;;;;;1.57;1.42;;;45.70;36.80;;;;;;893069;156;26425;-76
2022/09/05 08:20:50;;;;;;;1.50;1.10;;;45.80;36.20;;;;;;894327;157;26443;-76
2022/09/05 08:23:23;;;;;;;1.10;1.00;;;46.10;35.70;;;;;;894133;157;26376;-76
2022/09/05 08:26:04;;;;;;;2.55;1.37;;;46.30;35.30;;;;;;894571;157;26510;-78
2022/09/05 08:28:38;;;;;;;1.65;1.30;;;46.30;34.40;;;;;;894354;157;26969;-78
2022/09/05 08:31:06;;;;;;;1.30;1.20;;;46.10;33.70;;;;;;894353;157;26413;-78
2022/09/05 08:33:32;;;;;;;1.30;1.20;;;45.80;33.30;;;;;;894124;157;26348;-79
2022/09/05 08:35:59;;;;;;;4.28;1.42;;;45.50;33.30;;;;;;896534;157;26286;-79
2022/09/05 08:38:27;;;;;;;2.47;1.50;;;45.20;33.40;;;;;;893307;157;26418;-78
2022/09/05 08:40:55;;;;;;;1.65;1.40;;;45.00;33.70;;;;;;895019;157;26399;-79
2022/09/05 08:43:36;;;;;;;3.12;1.40;;;45.00;33.70;;;;;;893596;157;26441;-79
2022/09/05 08:46:21;;;;;;;1.35;0.98;;;45.00;33.70;;;;;;855351;164;26528;-79
2022/09/05 08:49:12;;;;;;;1.40;1.30;;;45.10;33.90;;;;;;885369;157;26316;-77
2022/09/05 08:51:38;;;;;;;1.72;1.10;;;45.30;33.30;;;;;;892900;156;26319;-77
2022/09/05 08:54:11;;;;;;;3.77;1.45;;;45.40;33.20;;;;;;899070;156;26335;-76
2022/09/05 08:56:40;;;;;;;1.52;1.22;;;45.60;32.90;;;;;;899882;156;26425;-77
2022/09/05 08:59:31;;;;;;;2.20;0.75;;;45.70;32.50;;;;;;899215;156;26654;-77
2022/09/05 09:02:13;;;;;;;1.10;1.10;;;45.80;32.10;;;;;;898163;156;26343;-77
2022/09/05 09:05:08;;;;;;;1.10;1.10;;;46.00;32.00;;;;;;899697;156;26343;-77
2022/09/05 09:07:52;;;;;;;0.80;0.80;;;46.10;31.50;;;;;;900132;156;26328;-77
2022/09/05 09:10:43;;;;;;;1.42;0.90;;;46.10;31.30;;;;;;899387;156;26329;-78
2022/09/05 09:13:28;;;;;;;0.85;0.85;;;46.20;30.90;;;;;;899466;156;26338;-76
2022/09/05 09:16:16;;;;;;;1.27;1.15;;;45.90;30.30;;;;;;899202;156;26370;-76
2022/09/05 09:18:48;;;;;;;1.32;0.75;;;45.70;30.00;;;;;;898858;156;26354;-77
2022/09/05 09:21:39;;;;;;;1.57;1.10;;;45.40;30.40;;;;;;898974;156;26408;-76
2022/09/05 09:24:05;;;;;;;0.90;0.90;;;45.20;30.40;;;;;;899591;156;26845;-76
2022/09/05 09:26:41;;;;;;;0.70;0.70;;;45.00;30.30;;;;;;900083;156;26269;-76
2022/09/05 09:29:11;;;;;;;3.05;1.07;;;44.70;30.10;;;;;;899488;156;26366;-76
2022/09/05 09:32:07;;;;;;;0.80;0.80;;;44.50;30.00;;;;;;899551;156;27135;-76
2022/09/05 09:34:46;;;;;;;1.50;0.88;;;44.30;29.40;;;;;;899399;156;26852;-76
2022/09/05 09:37:27;;;;;;;1.00;0.80;;;44.10;30.00;;;;;;899545;156;26776;-76
2022/09/05 09:40:12;;;;;;;2.30;0.82;;;43.80;30.00;;;;;;899635;156;26377;-77
2022/09/05 09:42:53;;;;;;;1.22;1.20;;;43.50;30.10;;;;;;900002;156;26321;-80
2022/09/05 09:45:28;;;;;;;1.80;1.20;;;43.30;30.10;;;;;;900111;156;26447;-75
2022/09/05 09:48:11;;;;;;;0.90;0.90;;;43.10;30.20;;;;;;899404;156;26401;-76
2022/09/05 09:50:51;;;;;;;2.08;0.68;;;42.90;30.10;;;;;;900319;156;26412;-76
2022/09/05 09:53:37;;;;;;;0.98;0.95;;;42.80;30.20;;;;;;900056;156;26444;-77
2022/09/05 09:56:04;;;;;;;0.80;0.80;;;42.50;30.10;;;;;;899477;156;26334;-77
2022/09/05 09:58:51;;;;;;;3.08;1.20;;;42.20;30.00;;;;;;899507;156;26350;-77
2022/09/05 10:01:29;;;;;;;1.20;1.00;;;41.90;30.00;;;;;;900526;156;26345;-75
2022/09/05 10:04:14;;;;;;;1.40;1.12;;;41.50;30.20;;;;;;899099;156;26432;-76
2022/09/05 10:07:06;;;;;;;0.75;0.75;;;41.20;30.40;;;;;;900121;156;26426;-77
2022/09/05 10:09:54;;;;;;;5.62;0.88;;;40.80;30.60;;;;;;898948;156;26319;-74
2022/09/05 10:12:45;;;;;;;1.35;0.90;;;40.50;30.60;;;;;;899764;156;26283;-75
2022/09/05 10:15:11;;;;;;;1.30;1.20;;;40.30;30.70;;;;;;899630;156;27811;-76
2022/09/05 10:17:59;;;;;;;4.33;1.42;;;40.00;30.80;;;;;;900490;156;26390;-75
2022/09/05 10:20:26;;;;;;;1.12;1.00;;;39.80;31.00;;;;;;890852;156;26893;-77
2022/09/05 10:23:23;;;;;;;1.98;0.90;;;39.60;31.20;;;;;;898159;156;26346;-75
2022/09/05 10:26:26;;;;;;;1.82;0.95;;;39.50;31.10;;;;;;899571;156;26982;-76
2022/09/05 10:29:31;;;;;;;1.20;1.10;;;39.30;30.90;;;;;;899963;156;26398;-76
2022/09/05 10:32:04;;;;;;;1.02;0.98;;;39.00;31.00;;;;;;899556;156;27418;-76
2022/09/05 10:34:30;;;;;;;0.85;0.82;;;38.70;31.10;;;;;;898423;156;26431;-77
2022/09/05 10:37:01;;;;;;;1.12;1.10;;;38.40;31.20;;;;;;897817;156;26454;-75
2022/09/05 10:39:29;;;;;;;1.20;1.00;;;38.00;31.30;;;;;;899743;156;27444;-75
2022/09/05 10:41:58;;;;;;;2.02;1.00;;;37.80;31.50;;;;;;899261;156;27408;-74
2022/09/05 10:44:28;;;;;;;1.27;1.10;;;37.50;31.80;;;;;;899227;156;27510;-75
2022/09/05 10:47:15;;;;;;;0.98;0.98;;;37.30;32.70;;;;;;891123;156;27532;-77
2022/09/05 10:49:44;;;;;;;0.90;0.90;;;37.10;32.10;;;;;;899631;156;27518;-76
2022/09/05 10:52:13;;;;;;;1.55;0.80;;;37.00;32.20;;;;;;900403;156;27784;-76
2022/09/05 10:55:01;;;;;;;0.80;0.80;;;36.90;32.10;;;;;;895807;156;27497;-77
2022/09/05 10:57:43;;;;;;;2.37;1.25;;;36.70;32.10;;;;;;894187;157;27456;-76
2022/09/05 11:00:28;;;;;;;1.00;1.00;;;36.60;32.00;;;;;;893963;157;27536;-77
2022/09/05 11:02:55;;;;;;;1.15;1.05;;;36.40;32.10;;;;;;894957;157;27472;-75
2022/09/05 11:05:26;;;;;;;0.93;0.78;;;36.20;31.60;;;;;;894304;157;27450;-75
2022/09/05 11:07:58;;;;;;;2.15;0.78;;;35.90;31.50;;;;;;894654;157;27425;-77
2022/09/05 11:10:31;;;;;;;1.10;1.00;;;35.70;31.80;;;;;;893943;157;27521;-76
2022/09/05 11:13:10;;;;;;;2.62;1.10;;;35.50;32.30;;;;;;893458;156;27417;-74
2022/09/05 11:16:13;;;;;;;1.12;1.10;;;35.30;32.70;;;;;;893992;156;27514;-74
2022/09/05 11:18:55;;;;;;;3.40;0.80;;;35.10;32.70;;;;;;894291;157;27433;-74
2022/09/05 11:21:24;;;;;;;0.82;0.82;;;34.90;32.80;;;;;;895027;157;27401;-74
2022/09/05 11:23:56;;;;;;;0.82;0.82;;;34.70;32.60;;;;;;894590;157;27414;-77
2022/09/05 11:26:34;;;;;;;2.33;1.10;;;34.60;33.10;;;;;;894066;157;28335;-74
2022/09/05 11:29:04;;;;;;;1.12;1.00;;;34.60;33.40;;;;;;894378;157;27412;-73
2022/09/05 11:31:42;;;;;;;1.07;1.07;;;34.50;33.30;;;;;;894639;157;27416;-74
2022/09/05 11:34:43;;;;;;;1.95;1.15;;;34.50;33.40;;;;;;893051;157;27445;-73
2022/09/05 11:37:33;;;;;;;1.05;1.05;;;34.40;33.60;;;;;;894910;157;27571;-77
2022/09/05 11:40:18;;;;;;;0.90;0.90;;;34.40;33.70;;;;;;894075;157;27516;-76
2022/09/05 11:42:56;;;;;;;0.95;0.88;;;34.50;33.70;;;;;;894739;157;27917;-78
2022/09/05 11:45:44;;;;;;;1.02;0.93;;;34.60;33.70;;;;;;893869;157;27409;-76
2022/09/05 11:48:41;;;;;;;1.10;1.05;;;34.60;33.70;;;;;;894409;157;27507;-76
2022/09/05 11:51:26;;;;;;;0.88;0.88;;;34.70;33.60;;;;;;892297;157;27870;-76
2022/09/05 11:54:21;;;;;;;1.40;0.93;;;34.90;33.40;;;;;;895591;157;27515;-76
2022/09/05 11:57:02;;;;;;;2.72;0.98;;;34.90;33.30;;;;;;896631;157;28088;-75
2022/09/05 11:59:32;;;;;;;1.07;0.93;;;35.00;33.10;;;;;;895107;157;27419;-77
2022/09/05 12:01:58;;;;;;;1.37;0.90;;;35.00;33.00;;;;;;895432;157;27452;-76
2022/09/05 12:04:37;;;;;;;1.17;1.10;;;35.00;33.00;;;;;;894087;157;27432;-76
2022/09/05 12:07:22;;;;;;;1.00;0.82;;;34.90;33.00;;;;;;896271;157;27449;-76
2022/09/05 12:10:10;;;;;;;2.30;1.55;;;34.90;33.00;;;;;;895466;157;27417;-76
2022/09/05 12:12:40;;;;;;;1.10;0.90;;;34.70;33.00;;;;;;895821;157;27772;-77
2022/09/05 12:15:28;;;;;;;1.10;1.00;;;34.70;33.00;;;;;;894042;157;27424;-76
2022/09/05 12:18:09;;;;;;;1.30;1.20;;;34.60;33.00;;;;;;895446;157;27977;-79
2022/09/05 12:20:50;;;;;;;1.00;0.90;;;34.50;33.00;;;;;;894877;157;27543;-76
2022/09/05 12:23:32;;;;;;;1.02;0.88;;;34.50;33.20;;;;;;895282;157;27416;-77
2022/09/05 12:26:06;;;;;;;1.57;1.00;;;34.60;33.40;;;;;;893395;157;27510;-77
2022/09/05 12:28:37;;;;;;;0.85;0.82;;;34.60;33.50;;;;;;894788;157;27409;-77
2022/09/05 12:31:16;;;;;;;3.83;1.30;;;34.60;33.40;;;;;;894278;157;27412;-78
2022/09/05 12:33:45;;;;;;;1.02;0.90;;;34.70;33.40;;;;;;895605;157;27444;-77
2022/09/05 12:36:27;;;;;;;0.93;0.93;;;34.70;33.30;;;;;;895696;157;27502;-76
2022/09/05 12:39:02;;;;;;;0.78;0.70;;;34.70;33.20;;;;;;894415;157;27419;-76
2022/09/05 12:41:29;;;;;;;0.80;0.80;;;34.70;33.00;;;;;;881681;157;29021;-77
2022/09/05 12:44:00;;;;;;;0.88;0.88;;;34.70;33.00;;;;;;895118;157;27438;-79
2022/09/05 12:46:25;;;;;;;1.27;1.17;;;34.70;32.80;;;;;;896174;157;27518;-76
2022/09/05 12:48:52;;;;;;;1.30;1.20;;;34.50;32.80;;;;;;894737;157;27531;-77
2022/09/05 12:51:18;;;;;;;1.47;0.90;;;34.40;32.90;;;;;;896756;157;27392;-76
2022/09/05 12:53:57;;;;;;;1.22;1.10;;;34.40;33.20;;;;;;896651;157;27534;-76
2022/09/05 12:56:33;;;;;;;1.25;0.90;;;34.20;33.20;;;;;;899379;156;27436;-78
2022/09/05 12:58:59;;;;;;;1.00;1.00;;;34.20;33.30;;;;;;898957;156;27451;-78
2022/09/05 13:01:38;;;;;;;1.15;0.90;;;34.10;33.50;;;;;;899663;156;27507;-76
2022/09/05 13:04:23;;;;;;;1.30;1.20;;;34.00;33.50;;;;;;900186;156;27550;-76
2022/09/05 13:06:45;;;;;;;0.85;0.80;;;33.90;33.40;;;;;;897381;156;27413;-77
2022/09/05 13:09:15;;;;;;;1.40;1.30;;;33.90;33.60;;;;;;898889;156;27420;-77
2022/09/05 13:12:02;;;;;;;1.37;1.27;;;33.80;33.60;;;;;;898839;156;27507;-77
2022/09/05 13:14:23;;;;;;;0.82;0.80;;;33.60;33.60;;;;;;880948;156;27578;-76
2022/09/05 13:16:50;;;;;;;1.52;0.80;;;33.60;33.90;;;;;;898752;156;27404;-78
2022/09/05 13:19:27;;;;;;;1.55;1.30;;;33.40;33.90;;;;;;899179;156;27519;-77
2022/09/05 13:21:54;;;;;;;2.47;1.15;;;33.40;34.00;;;;;;898127;156;27628;-76
2022/09/05 13:24:29;;;;;;;0.95;0.88;;;33.30;34.20;;;;;;899779;156;27389;-75
2022/09/05 13:26:54;;;;;;;1.35;1.25;;;33.30;34.10;;;;;;899925;156;27455;-75
2022/09/05 13:29:32;;;;;;;2.95;1.10;;;33.20;34.00;;;;;;898065;156;27419;-76
2022/09/05 13:31:59;;;;;;;1.75;1.20;;;33.10;34.10;;;;;;899557;156;27530;-75
2022/09/05 13:34:25;;;;;;;1.15;1.00;;;33.10;34.30;;;;;;898596;156;27837;-76
2022/09/05 13:36:55;;;;;;;1.10;1.00;;;32.90;34.30;;;;;;898745;156;27529;-76
2022/09/05 13:39:27;;;;;;;5.15;1.12;;;32.90;34.40;;;;;;898979;156;27435;-76
2022/09/05 13:41:50;;;;;;;2.25;1.05;;;32.70;34.40;;;;;;900104;156;27492;-78